Time;durP1;ratioP1;P1;durP2;ratioP2;P2;SDS_P1;SDS_P2;PMS_P1;PMS_P2;Temp;Humidity;BMP_temperature;BMP_pressure;BME280_temperature;BME280_humidity;BME280_pressure;Samples;Min_cycle;Max_cycle;Signal;HPM_P1;HPM_P2
2021/09/22 01:08:43;;;;;;;10.55;5.43;;;384.30;2329.60;;;;;;4751046;30;20100;-87
2021/09/22 01:12:40;;;;;;;;;;;;;;;;;;;;;
2021/09/22 01:20:21;;;;;;;7.20;4.78;;;384.40;2329.60;;;;;;4781403;30;20034;-89
2021/09/22 01:23:56;;;;;;;7.45;5.07;;;384.30;2329.60;;;;;;4743030;30;20055;-89
2021/09/22 01:27:34;;;;;;;9.35;5.38;;;384.30;2329.60;;;;;;4717448;30;20037;-88
2021/09/22 01:41:26;;;;;;;;;;;;;;;;;;;;;
2021/09/22 01:48:39;;;;;;;7.55;5.30;;;384.20;2329.60;;;;;;4673711;30;20081;-88
2021/09/22 02:25:02;;;;;;;8.63;5.45;;;384.00;2329.60;;;;;;5147908;27;20030;-87
2021/09/22 02:39:38;;;;;;;8.65;5.60;;;384.10;2329.60;;;;;;4910434;29;20095;-88
2021/09/22 02:43:05;;;;;;;7.00;5.30;;;384.00;2329.60;;;;;;4893718;29;20037;-88
2021/09/22 02:46:47;;;;;;;7.80;5.57;;;384.00;2329.60;;;;;;4819715;29;20046;-88
2021/09/22 02:50:17;;;;;;;7.90;5.88;;;384.00;2329.60;;;;;;4783461;30;20043;-88
2021/09/22 02:53:39;;;;;;;8.70;5.60;;;384.00;2329.60;;;;;;4748033;30;20094;-88
2021/09/22 03:22:39;;;;;;;9.07;5.95;;;359.30;2329.60;;;;;;4717752;30;20095;-88
2021/09/22 03:26:11;;;;;;;9.75;5.90;;;359.20;2329.60;;;;;;4745089;30;20111;-88
2021/09/22 03:29:49;;;;;;;13.80;6.43;;;359.20;2329.60;;;;;;4721505;30;20529;-87
2021/09/22 03:33:27;;;;;;;8.27;6.10;;;359.20;2329.60;;;;;;4737126;30;20592;-88
2021/09/22 03:44:10;;;;;;;8.07;5.57;;;359.20;2329.60;;;;;;4724954;30;20057;-88
2021/09/22 03:47:36;;;;;;;8.40;6.30;;;359.20;2329.60;;;;;;4733630;30;20049;-88
2021/09/22 03:57:07;;;;;;;9.32;6.47;;;359.20;2329.60;;;;;;5051162;28;20373;-86
2021/09/22 04:00:38;;;;;;;9.03;6.00;;;358.90;2329.60;;;;;;5066262;28;20037;-87
2021/09/22 04:03:57;;;;;;;11.95;6.97;;;359.20;2329.60;;;;;;4954768;28;20078;-86
2021/09/22 04:06:32;;;;;;;8.48;6.13;;;359.20;2329.60;;;;;;4954583;28;20083;-87
2021/09/22 04:09:34;;;;;;;7.72;5.90;;;359.30;2329.60;;;;;;4970714;28;20039;-87
2021/09/22 04:12:27;;;;;;;8.93;5.88;;;359.20;2329.60;;;;;;4970785;28;20082;-87
2021/09/22 04:15:02;;;;;;;10.23;6.13;;;384.60;2329.60;;;;;;4969976;28;20141;-88
2021/09/22 04:17:48;;;;;;;18.10;7.43;;;384.00;2329.60;;;;;;4970212;28;20114;-87
2021/09/22 04:20:32;;;;;;;10.38;6.38;;;384.00;2329.60;;;;;;4938432;28;20133;-87
2021/09/22 04:23:13;;;;;;;8.85;6.15;;;384.00;2329.60;;;;;;4938882;28;20527;-88
2021/09/22 04:25:53;;;;;;;10.35;6.15;;;359.30;2329.60;;;;;;4970545;28;20039;-88
2021/09/22 04:28:25;;;;;;;12.20;5.78;;;359.20;2329.60;;;;;;4938492;28;20027;-87
2021/09/22 04:31:44;;;;;;;10.60;6.43;;;359.20;2329.60;;;;;;4953965;28;20049;-87
2021/09/22 04:35:51;;;;;;;;;;;;;;;;;;;;;
2021/09/22 04:39:25;;;;;;;9.13;6.00;;;359.20;2329.60;;;;;;4893962;29;20074;-87
2021/09/22 04:41:53;;;;;;;10.57;6.55;;;359.20;2329.60;;;;;;4927502;29;20035;-87
2021/09/22 04:44:26;;;;;;;8.07;6.38;;;359.20;2329.60;;;;;;4950524;29;20039;-87
2021/09/22 04:48:01;;;;;;;;;;;;;;;;;;;;;
2021/09/22 04:58:44;;;;;;;;;;;;;;;;;;;;;
2021/09/22 05:02:07;;;;;;;;;;;;;;;;;;;;;
2021/09/22 05:09:27;;;;;;;;;;;;;;;;;;;;;
2021/09/22 05:29:06;;;;;;;7.75;6.40;;;359.30;2329.60;;;;;;4925730;29;20039;-87
2021/09/22 05:31:36;;;;;;;11.38;6.13;;;359.30;2329.60;;;;;;4935392;29;20484;-89
2021/09/22 05:34:11;;;;;;;9.32;6.43;;;359.20;2329.60;;;;;;4935647;29;20039;-86
2021/09/22 05:37:30;;;;;;;;;;;;;;;;;;;;;
2021/09/22 05:39:44;;;;;;;11.60;6.70;;;359.30;2329.60;;;;;;4967150;28;20048;-88
2021/09/22 05:42:21;;;;;;;8.18;6.05;;;359.30;2329.60;;;;;;5012854;28;20077;-89
2021/09/22 05:45:13;;;;;;;7.10;5.63;;;359.30;2329.60;;;;;;5029012;28;20036;-88
2021/09/22 05:47:43;;;;;;;20.63;12.68;;;359.30;2329.60;;;;;;5012859;28;20520;-87
2021/09/22 05:50:30;;;;;;;31.58;17.90;;;359.30;2329.60;;;;;;5012640;28;20022;-87
2021/09/22 05:53:04;;;;;;;64.43;33.08;;;359.30;2329.60;;;;;;5086597;28;20090;-89
2021/09/22 05:55:35;;;;;;;40.30;21.88;;;384.00;2329.60;;;;;;5083872;28;20086;-87
2021/09/22 05:58:06;;;;;;;29.33;17.40;;;384.00;2329.60;;;;;;5056487;28;20032;-89
2021/09/22 06:08:49;;;;;;;;;;;;;;;;;;;;;
2021/09/22 06:11:15;;;;;;;9.55;6.80;;;384.10;2329.60;;;;;;4982120;28;20031;-88
2021/09/22 06:13:45;;;;;;;15.07;10.13;;;384.10;2329.60;;;;;;4970991;28;20069;-88
2021/09/22 06:16:40;;;;;;;29.33;14.15;;;384.10;2329.60;;;;;;4988767;28;20237;-89
2021/09/22 06:19:09;;;;;;;17.55;11.73;;;384.10;2329.60;;;;;;5055620;28;20064;-87
2021/09/22 06:22:39;;;;;;;11.60;7.50;;;384.10;2329.60;;;;;;5088033;28;20028;-87
2021/09/22 06:25:20;;;;;;;9.38;7.40;;;384.10;2329.60;;;;;;4924988;28;20074;-89
2021/09/22 06:27:47;;;;;;;8.05;6.95;;;358.80;2329.60;;;;;;4953757;28;20051;-88
2021/09/22 06:30:20;;;;;;;13.68;8.38;;;384.30;2329.60;;;;;;5015747;28;20495;-87
2021/09/22 06:33:01;;;;;;;;;;;384.20;2329.60;;;;;;5048943;28;20037;-88
2021/09/22 06:35:33;;;;;;;11.43;9.03;;;384.30;2329.60;;;;;;5059648;28;19944;-88
2021/09/22 06:38:02;;;;;;;9.77;8.03;;;384.30;2329.60;;;;;;5057265;28;20104;-88
2021/09/22 06:40:34;;;;;;;10.65;7.57;;;359.30;2329.60;;;;;;5039690;28;20111;-88
2021/09/22 06:43:05;;;;;;;10.77;8.40;;;384.40;2329.60;;;;;;5039273;28;20056;-89
2021/09/22 06:45:33;;;;;;;10.63;8.25;;;384.40;2329.60;;;;;;5039490;28;20086;-89
2021/09/22 06:50:48;;;;;;;8.52;7.25;;;384.50;2329.60;;;;;;5057611;28;20021;-86
2021/09/22 06:53:22;;;;;;;10.50;6.95;;;359.30;2329.60;;;;;;5055409;28;20064;-88
2021/09/22 06:55:59;;;;;;;8.88;6.38;;;384.50;2329.60;;;;;;5041389;28;20037;-88
2021/09/22 06:58:26;;;;;;;10.45;6.57;;;384.40;2329.60;;;;;;5041449;28;20025;-88
2021/09/22 07:01:15;;;;;;;9.77;6.70;;;384.50;2329.60;;;;;;5042725;28;20029;-90
2021/09/22 07:04:28;;;;;;;10.23;6.50;;;384.50;2329.60;;;;;;5048025;28;20021;-90
2021/09/22 07:07:01;;;;;;;9.02;7.25;;;384.60;2329.60;;;;;;5048501;28;20366;-87
2021/09/22 07:09:27;;;;;;;9.75;6.88;;;384.60;2329.60;;;;;;5024045;28;20086;-85
2021/09/22 07:12:36;;;;;;;;;;;;;;;;;;;;;
2021/09/22 07:15:48;;;;;;;12.10;7.68;;;384.80;2329.60;;;;;;5053500;28;20107;-86
2021/09/22 07:19:06;;;;;;;9.63;7.63;;;384.80;2329.60;;;;;;4993083;28;20055;-88
2021/09/22 07:22:06;;;;;;;12.63;8.68;;;384.80;2329.60;;;;;;4931933;29;20032;-89
2021/09/22 07:24:35;;;;;;;12.77;9.50;;;384.80;2329.60;;;;;;4947548;28;20031;-86
2021/09/22 07:27:52;;;;;;;14.55;10.32;;;384.80;2329.60;;;;;;4976048;28;20035;-86
2021/09/22 07:30:53;;;;;;;18.00;14.02;;;384.90;2329.60;;;;;;4916370;29;20116;-88
2021/09/22 07:33:37;;;;;;;77.32;50.42;;;384.90;2329.60;;;;;;4907451;29;20504;-86
2021/09/22 07:36:37;;;;;;;123.10;90.80;;;384.90;2329.60;;;;;;5012941;28;20048;-85
2021/09/22 07:39:12;;;;;;;34.08;28.90;;;384.90;2329.60;;;;;;5019090;28;20033;-86
2021/09/22 07:41:46;;;;;;;17.45;15.32;;;409.60;2355.20;;;;;;5018832;28;20157;-86
2021/09/22 07:45:05;;;;;;;9.93;8.38;;;409.70;2355.20;;;;;;5017120;28;20041;-91
2021/09/22 07:48:31;;;;;;;7.53;5.82;;;409.60;2355.20;;;;;;4975089;28;20508;-89
2021/09/22 07:51:40;;;;;;;8.35;5.50;;;384.90;2329.60;;;;;;4964982;28;20093;-89
2021/09/22 07:54:30;;;;;;;11.38;4.88;;;384.90;2329.60;;;;;;4937711;28;20077;-90
2021/09/22 07:56:58;;;;;;;10.30;7.28;;;409.70;2355.20;;;;;;4981996;28;20058;-89
2021/09/22 07:59:24;;;;;;;8.85;7.45;;;409.60;2355.20;;;;;;4998507;28;20036;-88
2021/09/22 08:01:53;;;;;;;9.73;6.38;;;409.70;2355.20;;;;;;4997027;28;20104;-88
2021/09/22 08:04:58;;;;;;;11.82;6.03;;;409.70;2355.20;;;;;;5014379;28;20040;-90
2021/09/22 08:07:26;;;;;;;8.82;5.82;;;409.80;2355.20;;;;;;5038048;28;20043;-88
2021/09/22 08:10:00;;;;;;;11.18;7.65;;;409.90;2355.20;;;;;;5043128;28;20480;-86
2021/09/22 08:12:26;;;;;;;17.40;15.63;;;409.90;2355.20;;;;;;5057488;28;20149;-87
2021/09/22 08:14:52;;;;;;;13.48;12.18;;;409.90;2355.20;;;;;;5041035;28;20028;-88
2021/09/22 08:17:19;;;;;;;8.35;7.45;;;410.00;2355.20;;;;;;5040652;28;20029;-88
2021/09/22 08:19:45;;;;;;;10.77;7.57;;;410.00;2355.20;;;;;;5057098;28;20119;-87
2021/09/22 08:22:12;;;;;;;6.93;5.35;;;410.00;2355.20;;;;;;5041858;28;20115;-88
2021/09/22 08:24:39;;;;;;;10.75;6.00;;;410.00;2355.20;;;;;;5058941;28;20044;-87
2021/09/22 08:27:05;;;;;;;7.80;5.60;;;410.20;2355.20;;;;;;5026677;28;20033;-89
2021/09/22 08:29:56;;;;;;;7.47;6.07;;;410.00;2355.20;;;;;;5057500;28;20380;-88
2021/09/22 08:32:26;;;;;;;7.53;5.18;;;410.10;2355.20;;;;;;5056777;28;20472;-87
2021/09/22 08:34:54;;;;;;;6.82;5.85;;;410.20;2355.20;;;;;;5057160;28;20052;-87
2021/09/22 08:37:23;;;;;;;7.57;5.75;;;410.20;2355.20;;;;;;5039789;28;20113;-88
2021/09/22 08:39:58;;;;;;;8.05;6.22;;;410.00;2355.20;;;;;;5074214;28;20023;-87
2021/09/22 08:42:30;;;;;;;9.02;6.75;;;410.00;2355.20;;;;;;5056805;28;20025;-88
2021/09/22 08:45:14;;;;;;;9.43;6.25;;;410.00;2355.20;;;;;;5057072;28;20029;-88
2021/09/22 08:48:12;;;;;;;7.85;6.22;;;410.00;2355.20;;;;;;5056308;28;20020;-90
2021/09/22 08:50:39;;;;;;;8.52;6.10;;;409.90;2355.20;;;;;;5046439;28;20399;-89
2021/09/22 08:53:06;;;;;;;9.98;7.10;;;410.00;2355.20;;;;;;5056514;28;20024;-88
2021/09/22 08:55:48;;;;;;;;;;;410.20;2355.20;;;;;;5075342;28;20100;-86
2021/09/22 08:58:14;;;;;;;7.60;5.97;;;410.20;2355.20;;;;;;5056205;28;19997;-88
2021/09/22 09:01:07;;;;;;;10.93;6.72;;;410.20;2355.20;;;;;;5075423;28;20029;-87
2021/09/22 09:08:08;;;;;;;8.13;5.70;;;410.00;2355.20;;;;;;4944950;28;20041;-88
2021/09/22 09:10:36;;;;;;;7.88;5.40;;;410.00;2355.20;;;;;;4930225;28;20042;-88
2021/09/22 09:13:11;;;;;;;7.25;4.88;;;410.20;2355.20;;;;;;5056493;28;20059;-87
2021/09/22 09:15:42;;;;;;;7.65;5.25;;;410.20;2355.20;;;;;;5056454;28;20369;-88
2021/09/22 09:18:17;;;;;;;6.93;4.53;;;410.30;2355.20;;;;;;5056274;28;20119;-87
2021/09/22 09:20:47;;;;;;;7.88;5.10;;;410.30;2355.20;;;;;;5056530;28;20025;-87
2021/09/22 09:23:17;;;;;;;8.50;5.45;;;410.50;2355.20;;;;;;5056144;28;20031;-87
2021/09/22 09:25:53;;;;;;;6.90;5.13;;;410.50;2355.20;;;;;;5056092;28;20044;-87
2021/09/22 09:28:58;;;;;;;8.80;5.45;;;410.30;2355.20;;;;;;5056342;28;20066;-88
2021/09/22 09:31:51;;;;;;;7.97;5.60;;;410.30;2355.20;;;;;;5053892;28;20035;-87
2021/09/22 09:34:20;;;;;;;9.70;5.50;;;410.30;2355.20;;;;;;5058191;28;20035;-87
2021/09/22 09:36:47;;;;;;;8.68;5.70;;;410.20;2355.20;;;;;;5057025;28;20543;-87
2021/09/22 09:39:25;;;;;;;8.45;6.97;;;410.10;2355.20;;;;;;5055843;28;20039;-88
2021/09/22 09:41:53;;;;;;;8.20;5.45;;;410.00;2355.20;;;;;;5056343;28;20056;-88
2021/09/22 09:44:35;;;;;;;9.55;6.63;;;410.10;2355.20;;;;;;5056624;28;20063;-88
2021/09/22 09:47:11;;;;;;;9.77;7.80;;;410.00;2355.20;;;;;;5055805;28;20024;-88
2021/09/22 09:49:40;;;;;;;9.80;6.85;;;409.90;2355.20;;;;;;5056113;28;20039;-88
2021/09/22 09:52:52;;;;;;;9.93;6.88;;;409.70;2355.20;;;;;;5072965;28;20436;-87
2021/09/22 09:55:20;;;;;;;8.15;6.38;;;409.80;2355.20;;;;;;5073953;28;20533;-87
2021/09/22 09:57:50;;;;;;;9.57;7.32;;;409.70;2355.20;;;;;;5056026;28;20060;-87
2021/09/22 10:00:22;;;;;;;7.80;6.22;;;409.70;2355.20;;;;;;5040291;28;20033;-87
2021/09/22 10:02:52;;;;;;;9.80;6.40;;;409.70;2355.20;;;;;;5054844;28;20032;-88
2021/09/22 10:05:18;;;;;;;9.55;6.80;;;409.70;2355.20;;;;;;5055696;28;20032;-89
2021/09/22 10:07:48;;;;;;;8.65;6.10;;;409.70;2355.20;;;;;;5055566;28;20024;-87
2021/09/22 10:10:15;;;;;;;9.43;6.55;;;409.70;2355.20;;;;;;5057967;28;20070;-89
2021/09/22 10:12:42;;;;;;;8.10;6.28;;;409.70;2355.20;;;;;;5060210;28;20025;-87
2021/09/22 10:15:10;;;;;;;9.68;6.30;;;409.70;2355.20;;;;;;5042891;28;20028;-88
2021/09/22 10:17:43;;;;;;;9.07;6.43;;;409.90;2355.20;;;;;;5042989;28;20095;-89
2021/09/22 10:20:30;;;;;;;7.95;6.47;;;409.80;2355.20;;;;;;5059697;28;20115;-88
2021/09/22 10:22:58;;;;;;;7.68;6.50;;;409.90;2355.20;;;;;;5059290;28;20048;-86
2021/09/22 10:25:29;;;;;;;10.52;7.63;;;409.80;2355.20;;;;;;5076980;28;20040;-87
2021/09/22 10:28:16;;;;;;;9.20;7.50;;;409.80;2355.20;;;;;;5076839;28;20543;-87
2021/09/22 10:30:45;;;;;;;9.23;7.43;;;409.80;2355.20;;;;;;5058955;28;20037;-86
2021/09/22 10:33:46;;;;;;;12.60;7.15;;;409.80;2355.20;;;;;;5059619;28;20052;-87
2021/09/22 10:36:16;;;;;;;9.15;6.95;;;409.80;2355.20;;;;;;5042399;28;20119;-88
2021/09/22 10:42:44;;;;;;;;;;;;;;;;;;;;;
2021/09/22 10:45:22;;;;;;;9.38;6.72;;;409.60;2355.20;;;;;;5076560;28;19912;-87
2021/09/22 10:47:51;;;;;;;8.50;6.10;;;409.60;2355.20;;;;;;5058986;28;20024;-88
2021/09/22 10:51:04;;;;;;;8.65;6.57;;;384.90;2329.60;;;;;;5076392;28;20048;-85
2021/09/22 10:53:36;;;;;;;;;;;384.90;2329.60;;;;;;5058978;28;20025;-86
2021/09/22 10:56:21;;;;;;;8.27;7.18;;;384.80;2329.60;;;;;;5058367;28;19962;-85
2021/09/22 10:58:53;;;;;;;7.43;6.40;;;384.70;2329.60;;;;;;5058238;28;20032;-87
2021/09/22 11:01:43;;;;;;;9.85;7.05;;;384.80;2329.60;;;;;;5059212;28;20141;-83
2021/09/22 11:05:13;;;;;;;10.65;7.18;;;384.80;2329.60;;;;;;5076380;28;20033;-84
2021/09/22 11:08:23;;;;;;;9.75;7.32;;;384.70;2329.60;;;;;;5049992;28;20036;-86
2021/09/22 11:10:54;;;;;;;11.05;7.82;;;384.60;2329.60;;;;;;5058644;28;20094;-87
2021/09/22 11:13:23;;;;;;;12.70;8.02;;;384.60;2329.60;;;;;;5059065;28;20028;-87
2021/09/22 11:16:14;;;;;;;8.40;7.22;;;384.60;2329.60;;;;;;5078317;28;20028;-85
2021/09/22 11:19:01;;;;;;;9.30;7.90;;;384.60;2329.60;;;;;;5070025;28;20025;-86
2021/09/22 11:21:37;;;;;;;9.57;8.05;;;384.60;2329.60;;;;;;5058000;28;20047;-85
2021/09/22 11:24:11;;;;;;;11.45;8.23;;;384.50;2329.60;;;;;;5055326;28;20104;-85
2021/09/22 11:27:02;;;;;;;11.77;8.75;;;384.50;2329.60;;;;;;5057681;28;20044;-85
2021/09/22 11:29:58;;;;;;;14.50;9.20;;;384.50;2329.60;;;;;;5057762;28;20024;-86
2021/09/22 11:33:05;;;;;;;14.00;9.50;;;384.50;2329.60;;;;;;5056767;28;20032;-85
2021/09/22 11:35:52;;;;;;;11.85;9.07;;;384.30;2329.60;;;;;;4957722;28;20030;-85
2021/09/22 11:39:12;;;;;;;15.05;10.43;;;384.30;2329.60;;;;;;4973941;28;20606;-88
2021/09/22 11:42:07;;;;;;;11.32;9.30;;;384.30;2329.60;;;;;;4936254;28;20113;-89
2021/09/22 11:45:51;;;;;;;20.27;10.80;;;384.30;2329.60;;;;;;4954381;28;20054;-90
2021/09/22 11:49:25;;;;;;;18.00;14.50;;;384.30;2329.60;;;;;;4957814;28;20073;-89
2021/09/22 11:55:47;;;;;;;58.60;40.20;;;384.20;2329.60;;;;;;4955537;29;20492;-90
2021/09/22 11:58:17;;;;;;;22.23;16.50;;;384.00;2329.60;;;;;;4957406;28;20055;-87
2021/09/22 12:00:44;;;;;;;14.45;12.40;;;359.20;2329.60;;;;;;5048255;28;20119;-88
2021/09/22 12:03:18;;;;;;;18.48;15.02;;;359.00;2329.60;;;;;;5041013;28;20422;-87
2021/09/22 12:05:46;;;;;;;15.27;12.13;;;358.90;2329.60;;;;;;5040958;28;20153;-87
2021/09/22 12:08:13;;;;;;;13.23;10.18;;;358.70;2329.60;;;;;;5057115;28;20451;-85
2021/09/22 12:11:00;;;;;;;13.13;9.60;;;358.80;2329.60;;;;;;5040533;28;20021;-88
2021/09/22 12:13:27;;;;;;;11.10;9.73;;;358.60;2329.60;;;;;;5050804;28;20059;-88
2021/09/22 12:16:47;;;;;;;15.48;10.82;;;358.50;2329.60;;;;;;5040484;28;20097;-87
2021/09/22 12:22:42;;;;;;;11.88;8.85;;;358.40;2329.60;;;;;;4942264;29;20039;-88
2021/09/22 12:29:36;;;;;;;;;;;;;;;;;;;;;
2021/09/22 12:36:23;;;;;;;13.48;10.63;;;358.40;2329.60;;;;;;4943041;28;20037;-86
2021/09/22 12:38:54;;;;;;;14.68;11.70;;;358.40;2329.60;;;;;;5021814;28;20037;-86
2021/09/22 12:41:51;;;;;;;16.10;12.35;;;358.40;2329.60;;;;;;5035862;28;20040;-86
2021/09/22 12:44:20;;;;;;;22.88;17.02;;;358.40;2329.60;;;;;;5028210;28;20037;-87
2021/09/22 12:47:13;;;;;;;18.70;14.98;;;358.40;2329.60;;;;;;5036397;28;20365;-87
2021/09/22 12:54:14;;;;;;;;;;;;;;;;;;;;;
2021/09/22 12:57:32;;;;;;;;;;;;;;;;;;;;;
2021/09/22 13:00:36;;;;;;;21.17;14.18;;;333.40;2329.60;;;;;;5046444;28;20032;-86
2021/09/22 13:04:03;;;;;;;24.13;17.73;;;333.40;2329.60;;;;;;5032599;28;20026;-88
2021/09/22 13:06:41;;;;;;;31.40;22.60;;;333.70;2329.60;;;;;;5004383;28;20026;-87
2021/09/22 13:09:36;;;;;;;36.40;26.75;;;333.70;2329.60;;;;;;5053152;28;20120;-88
2021/09/22 13:12:04;;;;;;;27.70;21.13;;;333.70;2329.60;;;;;;5036458;28;20030;-88
2021/09/22 13:15:34;;;;;;;14.45;11.65;;;358.80;2329.60;;;;;;5036176;28;20036;-88
2021/09/22 13:18:34;;;;;;;15.00;11.32;;;333.60;2329.60;;;;;;5036229;28;20028;-89
2021/09/22 13:21:16;;;;;;;14.13;9.82;;;333.60;2329.60;;;;;;5027462;28;20044;-85
2021/09/22 13:31:02;;;;;;;;;;;;;;;;;;;;;
2021/09/22 13:33:58;;;;;;;11.38;9.57;;;333.40;2329.60;;;;;;4984204;28;20030;-87
2021/09/22 13:47:27;;;;;;;16.02;12.02;;;333.50;2329.60;;;;;;4959710;28;20415;-86
2021/09/22 13:51:06;;;;;;;11.95;8.82;;;333.30;2329.60;;;;;;4941516;28;20549;-84
2021/09/22 13:53:43;;;;;;;16.70;12.23;;;333.30;2329.60;;;;;;4959172;28;20050;-86
2021/09/22 13:56:39;;;;;;;14.88;10.98;;;333.70;2329.60;;;;;;5042863;28;20032;-84
2021/09/22 13:59:11;;;;;;;9.02;7.60;;;333.20;2329.60;;;;;;5056140;28;20067;-85
2021/09/22 14:01:44;;;;;;;10.65;8.15;;;333.20;2329.60;;;;;;5057215;28;20036;-86
2021/09/22 14:04:25;;;;;;;;;;;333.10;2329.60;;;;;;5022728;28;20040;-86
2021/09/22 14:11:20;;;;;;;10.57;7.70;;;333.10;2329.60;;;;;;5014602;28;20030;-84
2021/09/22 14:13:57;;;;;;;9.68;7.45;;;333.00;2329.60;;;;;;4997546;28;20100;-85
2021/09/22 14:16:47;;;;;;;10.63;7.40;;;333.20;2329.60;;;;;;5012523;28;20029;-84
2021/09/22 14:23:59;;;;;;;;;;;;;;;;;;;;;
2021/09/22 14:27:22;;;;;;;10.07;7.95;;;333.20;2329.60;;;;;;4967311;28;20056;-83
2021/09/22 14:30:59;;;;;;;11.77;9.02;;;333.20;2329.60;;;;;;4993028;28;20289;-85
2021/09/22 14:33:28;;;;;;;12.40;9.55;;;333.20;2329.60;;;;;;4986464;28;20045;-86
2021/09/22 14:46:18;;;;;;;;;;;333.30;2329.60;;;;;;4972721;28;20035;-84
2021/09/22 14:56:28;;;;;;;10.30;7.65;;;333.40;2329.60;;;;;;4989590;28;20056;-85
2021/09/22 15:05:53;;;;;;;9.60;6.60;;;333.40;2329.60;;;;;;5013367;28;20496;-84
2021/09/22 15:13:13;;;;;;;;;;;;;;;;;;;;;
2021/09/22 15:17:04;;;;;;;8.85;6.80;;;333.30;2329.60;;;;;;4867411;29;20471;-84
2021/09/22 15:20:06;;;;;;;;;;;;;;;;;;;;;
2021/09/22 15:23:29;;;;;;;13.00;7.15;;;333.20;2329.60;;;;;;4859053;29;20086;-86
2021/09/22 15:26:17;;;;;;;10.00;7.07;;;333.10;2329.60;;;;;;4915029;28;20058;-84
2021/09/22 15:29:05;;;;;;;8.65;6.20;;;333.10;2329.60;;;;;;5032678;28;20056;-84
2021/09/22 15:31:41;;;;;;;9.95;7.15;;;333.00;2329.60;;;;;;5076680;28;20036;-86
2021/09/22 15:34:10;;;;;;;9.27;7.63;;;333.00;2329.60;;;;;;5076275;28;20495;-83
2021/09/22 15:37:05;;;;;;;9.48;6.90;;;333.10;2329.60;;;;;;5094204;28;20365;-85
2021/09/22 15:40:21;;;;;;;8.63;7.38;;;333.10;2329.60;;;;;;5075721;28;20050;-85
2021/09/22 15:42:45;;;;;;;9.65;7.05;;;333.20;2329.60;;;;;;5087906;28;20036;-85
2021/09/22 15:46:02;;;;;;;8.82;7.25;;;333.00;2329.60;;;;;;5074332;28;20032;-84
2021/09/22 15:48:50;;;;;;;7.83;6.63;;;333.00;2329.60;;;;;;5091702;28;20039;-85
2021/09/22 15:51:56;;;;;;;;;;;;;;;;;;;;;
2021/09/22 15:55:17;;;;;;;7.80;6.28;;;332.90;2329.60;;;;;;5072287;28;20051;-84
2021/09/22 16:02:10;;;;;;;10.50;7.38;;;332.90;2329.60;;;;;;4986270;28;20394;-84
2021/09/22 16:05:36;;;;;;;;;;;;;;;;;;;;;
2021/09/22 16:08:48;;;;;;;12.40;7.95;;;332.80;2329.60;;;;;;5034816;28;20029;-89
2021/09/22 16:11:35;;;;;;;12.75;8.57;;;332.90;2329.60;;;;;;4992537;28;20058;-85
2021/09/22 16:14:24;;;;;;;12.32;8.32;;;332.90;2329.60;;;;;;4982651;28;20026;-85
2021/09/22 16:17:10;;;;;;;15.25;9.50;;;332.90;2329.60;;;;;;5008406;28;20030;-87
2021/09/22 16:20:20;;;;;;;11.95;9.20;;;332.90;2329.60;;;;;;5011839;28;20033;-84
2021/09/22 16:23:13;;;;;;;17.17;11.90;;;332.90;2329.60;;;;;;5048382;28;20037;-83
2021/09/22 16:26:20;;;;;;;18.40;11.68;;;332.90;2329.60;;;;;;5030731;28;20192;-85
2021/09/22 16:29:10;;;;;;;14.32;10.30;;;308.00;2304.00;;;;;;5030433;28;20028;-84
2021/09/22 16:31:37;;;;;;;13.48;10.32;;;332.90;2329.60;;;;;;5014718;28;20029;-85
2021/09/22 16:34:04;;;;;;;14.00;10.10;;;332.90;2329.60;;;;;;5004432;28;20033;-84
2021/09/22 16:37:01;;;;;;;14.55;11.15;;;332.90;2329.60;;;;;;5031183;28;20120;-84
2021/09/22 16:39:53;;;;;;;19.75;12.82;;;332.90;2329.60;;;;;;5030029;28;20033;-87
2021/09/22 16:43:06;;;;;;;13.80;10.52;;;332.90;2329.60;;;;;;5017405;28;20456;-89
2021/09/22 16:46:57;;;;;;;11.93;8.90;;;332.80;2329.60;;;;;;4991600;28;20042;-87
2021/09/22 16:50:31;;;;;;;12.25;8.82;;;308.10;2304.00;;;;;;4948118;29;20039;-86
2021/09/22 16:57:45;;;;;;;12.30;9.18;;;308.10;2304.00;;;;;;4915000;29;20047;-86
2021/09/22 17:01:35;;;;;;;12.70;10.07;;;308.10;2304.00;;;;;;4907599;29;20095;-86
2021/09/22 17:12:08;;;;;;;10.73;8.93;;;307.90;2304.00;;;;;;4890457;29;20492;-88
2021/09/22 17:18:52;;;;;;;11.85;8.98;;;307.80;2304.00;;;;;;4859531;29;20048;-89
2021/09/22 17:51:08;;;;;;;15.80;11.73;;;307.60;2304.00;;;;;;4923715;29;20216;-89
2021/09/22 18:11:34;;;;;;;11.50;9.82;;;307.80;2304.00;;;;;;4892941;29;20542;-87
2021/09/22 18:15:06;;;;;;;15.48;12.07;;;307.80;2304.00;;;;;;4837002;29;20030;-88
2021/09/22 18:28:02;;;;;;;10.95;8.95;;;307.80;2304.00;;;;;;4896781;29;20079;-87
2021/09/22 18:31:10;;;;;;;11.32;9.00;;;307.80;2304.00;;;;;;4916145;29;20024;-88
2021/09/22 18:37:27;;;;;;;12.90;9.90;;;307.80;2304.00;;;;;;4877957;29;20111;-89
2021/09/22 18:40:22;;;;;;;12.32;9.63;;;307.80;2304.00;;;;;;4901577;29;20027;-87
2021/09/22 18:43:47;;;;;;;10.60;9.02;;;307.80;2304.00;;;;;;4949528;29;20141;-87
2021/09/22 18:47:14;;;;;;;15.90;12.52;;;307.90;2304.00;;;;;;4955907;29;20087;-89
2021/09/22 18:49:43;;;;;;;13.75;10.65;;;307.80;2304.00;;;;;;4940696;29;20059;-87
2021/09/22 18:52:37;;;;;;;12.43;9.80;;;307.80;2304.00;;;;;;5030373;28;20505;-88
2021/09/22 18:55:49;;;;;;;14.00;10.07;;;307.80;2304.00;;;;;;4975276;28;20537;-90
2021/09/22 18:58:30;;;;;;;10.80;8.35;;;307.80;2304.00;;;;;;5009335;28;20088;-86
2021/09/22 19:01:45;;;;;;;11.25;8.88;;;307.80;2304.00;;;;;;5056526;28;20158;-86
2021/09/22 19:04:20;;;;;;;13.45;9.05;;;307.80;2304.00;;;;;;5024522;28;20033;-87
2021/09/22 19:07:39;;;;;;;10.38;8.63;;;307.80;2304.00;;;;;;5009196;28;20040;-87
2021/09/22 19:28:48;;;;;;;13.48;9.23;;;308.00;2304.00;;;;;;4806958;29;20095;-88
2021/09/22 19:36:16;;;;;;;10.60;9.48;;;307.90;2304.00;;;;;;4717942;30;20466;-88
2021/09/22 19:49:12;;;;;;;11.15;8.02;;;307.80;2304.00;;;;;;4595050;27;15161164;-85
2021/09/22 19:52:02;;;;;;;11.50;8.45;;;307.80;2304.00;;;;;;5109646;28;20055;-86
2021/09/22 19:55:17;;;;;;;11.38;7.97;;;307.80;2304.00;;;;;;5097408;28;20391;-85
2021/09/22 19:58:22;;;;;;;12.15;7.90;;;307.80;2304.00;;;;;;5108144;28;20430;-84
2021/09/22 20:01:22;;;;;;;9.10;7.40;;;307.80;2304.00;;;;;;5106173;28;20743;-86
2021/09/22 20:04:18;;;;;;;10.43;8.10;;;307.80;2304.00;;;;;;5095042;28;20735;-86
2021/09/22 20:07:42;;;;;;;9.93;7.47;;;307.80;2304.00;;;;;;5110480;28;20044;-87
2021/09/22 20:10:33;;;;;;;10.00;6.83;;;307.80;2304.00;;;;;;5093419;28;20032;-86
2021/09/22 20:13:29;;;;;;;8.65;7.20;;;307.80;2304.00;;;;;;5025336;28;20265;-86
2021/09/22 20:22:37;;;;;;;12.25;8.38;;;307.80;2304.00;;;;;;5000239;28;20143;-86
2021/09/22 20:25:56;;;;;;;11.15;8.07;;;307.70;2304.00;;;;;;5105568;28;20135;-86
2021/09/22 20:29:11;;;;;;;11.20;8.65;;;307.80;2304.00;;;;;;5055671;28;20099;-87
2021/09/22 20:32:31;;;;;;;9.32;8.20;;;307.80;2304.00;;;;;;5110770;28;20024;-91
2021/09/22 20:35:42;;;;;;;10.48;9.20;;;307.80;2304.00;;;;;;5110719;28;20024;-86
2021/09/22 20:41:55;;;;;;;12.50;9.80;;;307.80;2304.00;;;;;;5097055;28;20049;-86
2021/09/22 20:44:47;;;;;;;10.45;8.32;;;307.80;2304.00;;;;;;5104630;28;20039;-84
2021/09/22 20:48:01;;;;;;;12.13;9.63;;;307.70;2304.00;;;;;;5096532;27;20082;-86
2021/09/22 20:51:15;;;;;;;15.27;10.90;;;307.80;2304.00;;;;;;5065322;28;20420;-85
2021/09/22 20:54:02;;;;;;;18.70;14.18;;;307.70;2304.00;;;;;;5066331;28;20484;-86
2021/09/22 20:57:05;;;;;;;12.80;10.65;;;307.80;2304.00;;;;;;5032258;28;20029;-86
2021/09/22 21:07:28;;;;;;;26.85;20.02;;;307.80;2304.00;;;;;;4955666;29;20079;-86
2021/09/22 21:10:57;;;;;;;35.45;24.15;;;307.80;2304.00;;;;;;4935863;29;20058;-86
2021/09/22 21:14:08;;;;;;;50.70;34.78;;;307.90;2304.00;;;;;;4944776;29;20066;-88
2021/09/22 21:17:25;;;;;;;18.42;14.85;;;307.80;2304.00;;;;;;4955738;29;20023;-88
2021/09/22 21:20:43;;;;;;;14.73;10.93;;;307.90;2304.00;;;;;;4927308;28;20071;-88
2021/09/22 21:27:13;;;;;;;19.30;15.35;;;307.90;2304.00;;;;;;4906515;29;20409;-89
2021/09/22 21:30:09;;;;;;;16.98;13.43;;;307.80;2304.00;;;;;;4892677;29;20391;-87
2021/09/22 21:33:16;;;;;;;11.75;9.80;;;307.80;2304.00;;;;;;4926471;29;20039;-87
2021/09/22 21:36:48;;;;;;;10.32;8.02;;;307.80;2304.00;;;;;;4988332;28;20547;-86
2021/09/22 21:43:08;;;;;;;10.32;8.60;;;307.80;2304.00;;;;;;5013820;28;20459;-87
2021/09/22 21:49:13;;;;;;;10.38;8.52;;;307.80;2304.00;;;;;;4967221;28;20076;-87
2021/09/22 22:02:42;;;;;;;11.23;8.93;;;307.60;2304.00;;;;;;4954884;29;20158;-87
2021/09/22 22:05:58;;;;;;;10.35;8.95;;;307.70;2304.00;;;;;;4978238;28;20039;-86
2021/09/22 22:09:17;;;;;;;12.45;10.05;;;307.70;2304.00;;;;;;4968376;28;20038;-87